Time;durP1;ratioP1;P1;durP2;ratioP2;P2;SDS_P1;SDS_P2;PMS_P1;PMS_P2;Temp;Humidity;BMP_temperature;BMP_pressure;BME280_temperature;BME280_humidity;BME280_pressure;Samples;Min_cycle;Max_cycle;Signal;HPM_P1;HPM_P2
2022/01/01 00:01:34;;;;;;;22.70;11.85;;;7.60;99.90;;;;;;6195451;23;20412;-84
2022/01/01 00:04:24;;;;;;;18.95;11.27;;;7.60;99.90;;;;;;6194391;23;20405;-82
2022/01/01 00:07:12;;;;;;;20.10;11.65;;;7.50;99.90;;;;;;6195967;23;20020;-83
2022/01/01 00:10:03;;;;;;;28.40;17.33;;;7.50;99.90;;;;;;6198224;23;20035;-84
2022/01/01 00:12:53;;;;;;;20.58;12.80;;;7.30;99.90;;;;;;6195019;23;20036;-84
2022/01/01 00:15:41;;;;;;;25.60;14.57;;;7.00;99.90;;;;;;6198578;23;20056;-84
2022/01/01 00:18:54;;;;;;;23.30;12.77;;;6.80;99.90;;;;;;6197252;23;20035;-85
2022/01/01 00:21:45;;;;;;;18.42;11.52;;;6.80;99.90;;;;;;6119429;23;20026;-86
2022/01/01 00:24:35;;;;;;;21.73;12.95;;;6.90;99.90;;;;;;6105543;23;20084;-84
2022/01/01 00:27:22;;;;;;;20.05;12.43;;;6.80;99.90;;;;;;6125056;23;20021;-84
2022/01/01 00:30:10;;;;;;;19.08;11.15;;;6.80;99.90;;;;;;6122361;23;20412;-85
2022/01/01 00:33:00;;;;;;;20.40;12.20;;;6.70;99.90;;;;;;6120978;23;20081;-85
2022/01/01 00:35:51;;;;;;;19.05;11.15;;;6.70;99.90;;;;;;6161645;23;20034;-85
2022/01/01 00:38:41;;;;;;;14.27;9.57;;;6.60;99.90;;;;;;6142203;23;20033;-84
2022/01/01 00:41:28;;;;;;;14.60;9.90;;;6.50;99.90;;;;;;6177613;23;20051;-86
2022/01/01 00:44:15;;;;;;;18.55;11.18;;;6.50;99.90;;;;;;6242567;23;20032;-85
2022/01/01 00:47:03;;;;;;;21.40;11.60;;;6.50;99.90;;;;;;6223058;23;20032;-87
2022/01/01 00:49:54;;;;;;;19.85;13.18;;;6.50;99.90;;;;;;6225339;23;20031;-85
2022/01/01 00:52:46;;;;;;;20.58;12.68;;;6.60;99.90;;;;;;6223502;23;20024;-85
2022/01/01 00:55:48;;;;;;;19.23;11.75;;;6.60;99.90;;;;;;6192321;23;20023;-86
2022/01/01 00:58:48;;;;;;;23.33;13.40;;;6.70;99.90;;;;;;6245687;23;20032;-86
2022/01/01 01:01:43;;;;;;;21.23;12.93;;;6.70;99.90;;;;;;6226156;23;20030;-84
2022/01/01 01:04:34;;;;;;;27.88;14.32;;;6.60;99.90;;;;;;6201181;23;20423;-85
2022/01/01 01:07:38;;;;;;;24.08;13.38;;;6.50;99.90;;;;;;6226176;23;20134;-86
2022/01/01 01:10:35;;;;;;;19.23;11.80;;;6.60;99.90;;;;;;6203768;23;20082;-87
2022/01/01 01:13:44;;;;;;;16.08;11.20;;;6.70;99.90;;;;;;6242674;23;20031;-84
2022/01/01 01:16:32;;;;;;;21.70;12.00;;;6.70;99.90;;;;;;6223020;23;20036;-85
2022/01/01 01:19:22;;;;;;;18.73;11.02;;;6.80;99.90;;;;;;6201027;23;20323;-84
2022/01/01 01:22:10;;;;;;;18.73;11.32;;;6.80;99.90;;;;;;6223624;23;20047;-84
2022/01/01 01:25:00;;;;;;;23.13;12.73;;;6.80;99.90;;;;;;6219697;23;20457;-85
2022/01/01 01:27:51;;;;;;;18.73;11.25;;;6.80;99.90;;;;;;6242873;23;20020;-84
2022/01/01 01:30:39;;;;;;;21.02;11.73;;;6.70;99.90;;;;;;6223321;23;20125;-86
2022/01/01 01:33:29;;;;;;;21.63;12.60;;;6.70;99.90;;;;;;6223079;23;20330;-85
2022/01/01 01:36:16;;;;;;;21.92;13.75;;;6.70;99.90;;;;;;6172224;23;20055;-86
2022/01/01 01:39:07;;;;;;;20.30;11.15;;;6.70;99.90;;;;;;6214176;23;20024;-86
2022/01/01 01:41:57;;;;;;;17.60;10.93;;;6.70;99.90;;;;;;6188952;23;20024;-88
2022/01/01 01:44:47;;;;;;;24.25;11.05;;;6.60;99.90;;;;;;6191011;23;20020;-85
2022/01/01 01:47:42;;;;;;;17.30;9.50;;;6.70;99.90;;;;;;6190473;23;20056;-85
2022/01/01 01:50:46;;;;;;;21.40;10.55;;;6.80;99.90;;;;;;6179576;23;20040;-86
2022/01/01 01:53:34;;;;;;;15.85;10.68;;;6.90;99.90;;;;;;6169391;23;20040;-84
2022/01/01 01:56:25;;;;;;;13.68;8.90;;;6.90;99.90;;;;;;6211491;23;20430;-82
2022/01/01 01:59:16;;;;;;;14.77;9.00;;;7.00;99.90;;;;;;6174054;23;20328;-83
2022/01/01 02:02:15;;;;;;;12.75;7.82;;;6.90;99.90;;;;;;6212936;23;20089;-86
2022/01/01 02:05:07;;;;;;;14.77;8.05;;;6.90;99.90;;;;;;6191765;23;20024;-83
2022/01/01 02:07:58;;;;;;;14.10;7.70;;;6.90;99.90;;;;;;6151900;23;20016;-84
2022/01/01 02:10:52;;;;;;;14.13;7.35;;;6.90;99.90;;;;;;6191624;23;20021;-84
2022/01/01 02:19:54;;;;;;;12.70;8.15;;;6.90;99.90;;;;;;6174450;23;20064;-85
2022/01/01 02:22:48;;;;;;;15.68;8.00;;;6.70;99.90;;;;;;6191255;23;20028;-85
2022/01/01 02:25:54;;;;;;;14.32;8.75;;;6.50;99.90;;;;;;6179846;23;20098;-83
2022/01/01 02:28:46;;;;;;;14.30;8.52;;;6.50;99.90;;;;;;6191973;23;20083;-84
2022/01/01 02:31:41;;;;;;;13.82;8.40;;;6.40;99.90;;;;;;6192102;23;20108;-84
2022/01/01 02:34:28;;;;;;;16.77;9.52;;;6.40;99.90;;;;;;6068503;23;3041502;-86
2022/01/01 02:37:17;;;;;;;18.65;10.35;;;6.30;99.90;;;;;;6221335;23;20032;-85
2022/01/01 02:40:08;;;;;;;18.42;10.57;;;6.20;99.90;;;;;;6222539;23;20423;-86
2022/01/01 02:42:56;;;;;;;19.55;10.68;;;6.10;99.90;;;;;;6221289;23;20034;-87
2022/01/01 02:45:44;;;;;;;22.08;13.13;;;6.20;99.90;;;;;;6201578;23;20034;-83
2022/01/01 02:48:50;;;;;;;24.75;12.93;;;6.30;99.90;;;;;;6227105;23;20028;-86
2022/01/01 02:51:37;;;;;;;23.15;13.13;;;6.50;99.90;;;;;;6223382;23;20301;-86
2022/01/01 02:54:24;;;;;;;19.17;12.10;;;6.50;99.90;;;;;;6224596;23;20020;-86
2022/01/01 02:57:13;;;;;;;22.42;12.30;;;6.70;99.90;;;;;;6223186;23;20028;-86
2022/01/01 03:00:01;;;;;;;23.88;13.57;;;6.80;99.90;;;;;;6206167;23;20024;-87
2022/01/01 03:02:48;;;;;;;24.63;13.57;;;6.90;99.90;;;;;;6222180;23;20028;-86
2022/01/01 03:05:37;;;;;;;24.13;13.60;;;6.80;99.90;;;;;;6223403;23;20038;-87
2022/01/01 03:08:24;;;;;;;26.55;13.45;;;6.90;99.90;;;;;;6246452;23;20024;-86
2022/01/01 03:11:24;;;;;;;19.83;12.20;;;7.00;99.90;;;;;;6227638;23;20680;-86
2022/01/01 03:14:17;;;;;;;21.55;13.20;;;7.20;99.90;;;;;;6223584;23;20047;-84
2022/01/01 03:17:09;;;;;;;28.10;13.82;;;7.30;99.90;;;;;;6223076;23;20316;-86
2022/01/01 03:19:58;;;;;;;24.20;12.57;;;7.40;99.90;;;;;;6202981;23;20024;-85
2022/01/01 03:22:49;;;;;;;17.80;11.38;;;7.30;99.90;;;;;;6222991;23;20106;-84
2022/01/01 03:25:41;;;;;;;19.63;11.48;;;7.40;99.90;;;;;;6206695;23;20062;-85
2022/01/01 03:28:34;;;;;;;17.83;11.32;;;7.40;99.90;;;;;;6223113;23;20024;-85
2022/01/01 03:31:35;;;;;;;17.42;9.65;;;7.40;99.90;;;;;;6227012;23;20096;-85
2022/01/01 03:34:23;;;;;;;19.73;11.45;;;7.40;99.90;;;;;;6223774;23;20076;-84
2022/01/01 03:37:17;;;;;;;18.45;11.00;;;7.40;99.90;;;;;;6224842;23;20668;-85
2022/01/01 03:40:06;;;;;;;18.23;11.27;;;7.40;99.90;;;;;;6204106;23;20096;-85
2022/01/01 03:42:54;;;;;;;19.98;11.23;;;7.50;99.90;;;;;;6222417;23;20027;-86
2022/01/01 03:45:44;;;;;;;18.52;10.43;;;7.50;99.90;;;;;;6221681;23;20046;-86
2022/01/01 03:48:36;;;;;;;17.65;10.15;;;7.50;99.90;;;;;;6206897;23;20031;-85
2022/01/01 03:51:24;;;;;;;18.05;10.48;;;7.50;99.90;;;;;;6203883;23;20028;-86
2022/01/01 03:54:15;;;;;;;17.27;10.40;;;7.50;99.90;;;;;;6222748;23;20024;-86
2022/01/01 03:57:05;;;;;;;13.30;9.50;;;7.50;99.90;;;;;;6204200;23;20038;-85
2022/01/01 03:59:52;;;;;;;15.90;10.45;;;7.50;99.90;;;;;;6182442;23;20115;-84
2022/01/01 04:02:42;;;;;;;19.35;11.50;;;7.50;99.90;;;;;;6203360;22;20027;-83
2022/01/01 04:05:33;;;;;;;18.37;10.33;;;7.50;99.90;;;;;;6223591;23;20043;-83
2022/01/01 04:08:20;;;;;;;16.10;9.40;;;7.50;99.90;;;;;;6203217;23;20421;-85
2022/01/01 04:11:08;;;;;;;13.65;8.95;;;7.50;99.90;;;;;;6202016;23;20032;-84
2022/01/01 04:13:55;;;;;;;15.63;9.82;;;7.60;99.90;;;;;;6225841;23;20082;-83
2022/01/01 04:16:47;;;;;;;13.73;9.07;;;7.60;99.90;;;;;;6203020;23;20028;-84
2022/01/01 04:19:39;;;;;;;16.58;9.77;;;7.60;99.90;;;;;;6243613;23;20030;-85
2022/01/01 04:22:26;;;;;;;13.95;9.02;;;7.60;99.90;;;;;;6221702;23;20099;-85
2022/01/01 04:25:14;;;;;;;13.35;8.90;;;7.60;99.90;;;;;;6221396;23;20024;-85
2022/01/01 04:28:02;;;;;;;14.40;9.43;;;7.50;99.90;;;;;;6242309;23;20020;-86
2022/01/01 04:30:50;;;;;;;16.38;8.65;;;7.50;99.90;;;;;;6221991;23;20055;-84
2022/01/01 04:33:37;;;;;;;12.90;8.18;;;7.50;99.90;;;;;;6222505;23;20110;-85
2022/01/01 04:36:25;;;;;;;10.15;6.75;;;7.50;99.90;;;;;;6172857;23;20028;-85
2022/01/01 04:39:12;;;;;;;11.65;6.53;;;7.60;99.90;;;;;;6171220;23;20473;-83
2022/01/01 04:41:59;;;;;;;11.88;7.22;;;7.60;99.90;;;;;;6153266;23;20029;-87
2022/01/01 04:44:46;;;;;;;9.35;6.05;;;7.60;99.90;;;;;;6194848;23;20040;-85
2022/01/01 04:47:36;;;;;;;9.15;5.65;;;7.50;99.90;;;;;;6214053;23;20028;-87
2022/01/01 04:50:23;;;;;;;8.82;5.82;;;7.40;99.90;;;;;;6214511;23;20024;-85
2022/01/01 04:53:15;;;;;;;11.82;6.25;;;7.40;99.90;;;;;;6192701;23;20028;-86
2022/01/01 04:56:06;;;;;;;9.98;6.43;;;7.30;99.90;;;;;;6213927;23;20447;-85
2022/01/01 04:58:55;;;;;;;9.75;5.72;;;7.30;99.90;;;;;;6193593;23;20130;-84
2022/01/01 05:01:52;;;;;;;9.43;6.03;;;7.20;99.90;;;;;;6170933;23;20098;-85
2022/01/01 05:04:42;;;;;;;9.80;6.00;;;7.20;99.90;;;;;;6172953;23;20104;-85
2022/01/01 05:07:34;;;;;;;11.07;6.97;;;7.10;99.90;;;;;;6169753;23;20072;-86
2022/01/01 05:10:24;;;;;;;11.02;6.82;;;7.10;99.90;;;;;;6213742;23;20021;-85
2022/01/01 05:13:13;;;;;;;12.55;7.25;;;6.90;99.90;;;;;;6193098;23;20025;-84
2022/01/01 05:16:01;;;;;;;12.10;8.18;;;6.80;99.90;;;;;;6170244;23;20159;-86
2022/01/01 05:18:51;;;;;;;13.63;7.68;;;6.70;99.90;;;;;;6150141;23;20455;-84
2022/01/01 05:21:57;;;;;;;11.02;7.43;;;6.60;99.90;;;;;;6175001;23;20024;-86
2022/01/01 05:24:49;;;;;;;14.43;8.52;;;6.50;99.90;;;;;;6211422;23;20144;-82
2022/01/01 05:27:55;;;;;;;12.73;7.85;;;6.50;99.90;;;;;;6150861;23;20025;-84
2022/01/01 05:30:48;;;;;;;9.98;6.63;;;6.60;99.90;;;;;;6132764;23;20101;-85
2022/01/01 05:33:55;;;;;;;10.73;7.40;;;6.60;99.90;;;;;;6092898;23;20070;-86
2022/01/01 05:36:46;;;;;;;12.43;7.68;;;6.50;99.90;;;;;;6092697;23;20030;-84
2022/01/01 05:39:36;;;;;;;11.75;7.30;;;6.50;99.90;;;;;;6070926;23;20064;-86
2022/01/01 05:42:25;;;;;;;13.98;8.32;;;6.60;99.90;;;;;;6074896;23;20027;-85
2022/01/01 05:45:12;;;;;;;11.35;7.88;;;6.60;99.90;;;;;;6055625;23;20038;-84
2022/01/01 05:48:00;;;;;;;13.88;8.55;;;6.60;99.90;;;;;;6074416;23;20133;-84
2022/01/01 05:50:51;;;;;;;15.35;8.90;;;6.40;99.90;;;;;;6075207;23;20038;-85
2022/01/01 05:53:40;;;;;;;12.23;8.10;;;6.30;99.90;;;;;;6075103;23;20149;-85
2022/01/01 05:56:28;;;;;;;13.88;8.38;;;6.20;99.90;;;;;;6055590;23;20049;-85
2022/01/01 05:59:17;;;;;;;15.07;8.98;;;6.20;99.90;;;;;;6120653;23;20080;-85
2022/01/01 06:02:06;;;;;;;19.23;9.30;;;6.10;99.90;;;;;;6152368;23;20189;-85
2022/01/01 06:04:53;;;;;;;14.43;9.40;;;6.10;99.90;;;;;;6171162;23;20041;-88
2022/01/01 06:07:41;;;;;;;16.08;9.60;;;5.90;99.90;;;;;;6190769;23;20055;-84
2022/01/01 06:10:30;;;;;;;16.13;9.30;;;5.90;99.90;;;;;;6193059;23;20099;-88
2022/01/01 06:13:19;;;;;;;14.93;9.05;;;5.80;99.90;;;;;;6213928;23;20412;-85
2022/01/01 06:16:07;;;;;;;14.20;8.43;;;5.80;99.90;;;;;;6194506;23;20528;-87
2022/01/01 06:18:54;;;;;;;14.50;8.63;;;5.80;99.90;;;;;;6170838;23;20032;-85
2022/01/01 06:21:44;;;;;;;13.43;8.75;;;5.90;99.90;;;;;;6173678;23;20036;-87
2022/01/01 06:24:32;;;;;;;17.90;9.50;;;6.00;99.90;;;;;;6192576;23;20021;-86
2022/01/01 06:27:19;;;;;;;15.77;9.80;;;5.90;99.90;;;;;;6171338;23;20309;-83
2022/01/01 06:30:07;;;;;;;16.88;10.38;;;5.90;99.90;;;;;;6174052;23;20032;-85
2022/01/01 06:32:54;;;;;;;18.88;11.18;;;5.90;99.90;;;;;;6171783;23;20028;-85
2022/01/01 06:35:43;;;;;;;19.83;11.82;;;5.80;99.90;;;;;;6187680;23;20083;-82
2022/01/01 06:38:34;;;;;;;;;;;5.80;99.90;;;;;;6216110;23;20033;-84
2022/01/01 06:41:24;;;;;;;18.95;10.68;;;5.80;99.90;;;;;;6216466;23;19920;-81
2022/01/01 06:44:15;;;;;;;18.27;11.00;;;5.80;99.90;;;;;;6194427;23;20091;-83
2022/01/01 06:47:02;;;;;;;17.38;10.98;;;5.80;99.90;;;;;;6195272;23;20407;-83
2022/01/01 06:49:50;;;;;;;18.65;11.20;;;5.90;99.90;;;;;;6216180;23;20094;-83
2022/01/01 06:52:43;;;;;;;17.90;10.50;;;6.00;99.90;;;;;;6200014;23;20024;-86
2022/01/01 06:55:30;;;;;;;18.20;9.68;;;6.00;99.90;;;;;;6199266;23;20025;-84
2022/01/01 06:58:17;;;;;;;15.65;8.82;;;6.10;99.90;;;;;;6198958;23;20036;-85
2022/01/01 07:01:05;;;;;;;13.40;9.23;;;6.20;99.90;;;;;;6216670;23;20036;-86
2022/01/01 07:03:53;;;;;;;15.07;9.13;;;6.20;99.90;;;;;;6218734;23;20036;-85
2022/01/01 07:06:40;;;;;;;14.77;8.07;;;6.30;99.90;;;;;;6199687;23;20075;-84
2022/01/01 07:09:28;;;;;;;14.00;8.85;;;6.40;99.90;;;;;;6197793;23;20357;-85
2022/01/01 07:12:16;;;;;;;14.05;8.15;;;6.40;99.90;;;;;;6196694;23;20469;-83
2022/01/01 07:15:06;;;;;;;11.98;8.25;;;6.40;99.90;;;;;;6218869;23;20051;-85
2022/01/01 07:17:54;;;;;;;11.75;7.45;;;6.40;99.90;;;;;;6196751;23;20024;-85
2022/01/01 07:20:44;;;;;;;12.43;7.25;;;6.40;99.90;;;;;;6157016;23;20082;-85
2022/01/01 07:23:31;;;;;;;15.20;7.60;;;6.40;99.90;;;;;;6196715;23;20674;-85
2022/01/01 07:26:19;;;;;;;9.70;6.88;;;6.40;99.90;;;;;;6217084;23;20032;-85
2022/01/01 07:29:09;;;;;;;11.63;6.72;;;6.50;99.90;;;;;;6216239;23;20055;-84
2022/01/01 07:31:58;;;;;;;16.90;6.78;;;6.50;99.90;;;;;;6173488;23;20059;-86
2022/01/01 07:34:48;;;;;;;11.05;6.55;;;6.60;99.90;;;;;;6185077;23;20031;-83
2022/01/01 07:37:35;;;;;;;10.00;6.65;;;6.60;99.90;;;;;;6233855;23;20028;-85
2022/01/01 07:40:24;;;;;;;10.15;6.80;;;6.60;99.90;;;;;;6221932;23;20028;-85
2022/01/01 07:43:19;;;;;;;11.40;6.07;;;6.60;99.90;;;;;;6204055;23;20406;-86
2022/01/01 07:46:06;;;;;;;11.70;7.53;;;6.50;99.90;;;;;;6225663;22;20020;-83
2022/01/01 07:48:53;;;;;;;10.68;7.20;;;6.50;99.90;;;;;;6221647;23;20047;-87
2022/01/01 07:51:43;;;;;;;10.25;6.82;;;6.30;99.90;;;;;;6224689;23;20028;-85
2022/01/01 07:54:31;;;;;;;10.27;6.35;;;6.20;99.90;;;;;;6245582;23;20119;-85
2022/01/01 07:57:18;;;;;;;11.27;7.05;;;6.20;99.90;;;;;;6181464;23;20332;-86
2022/01/01 08:00:07;;;;;;;9.82;6.70;;;6.20;99.90;;;;;;6245849;23;20122;-86
2022/01/01 08:02:55;;;;;;;12.50;7.00;;;6.20;99.90;;;;;;6203001;23;20057;-87
2022/01/01 08:05:42;;;;;;;13.82;7.70;;;6.20;99.90;;;;;;6200864;23;20032;-85
2022/01/01 08:08:30;;;;;;;12.38;7.25;;;6.20;99.90;;;;;;6244292;23;20028;-86
2022/01/01 08:11:17;;;;;;;13.70;7.43;;;6.30;99.90;;;;;;6221849;23;20055;-86
2022/01/01 08:14:04;;;;;;;11.77;7.68;;;6.30;99.90;;;;;;6201620;23;20063;-84
2022/01/01 08:17:04;;;;;;;13.60;7.95;;;6.40;99.90;;;;;;6222778;23;20039;-86
2022/01/01 08:19:52;;;;;;;12.82;6.82;;;6.50;99.90;;;;;;6220728;23;20086;-86
2022/01/01 08:22:41;;;;;;;12.70;6.88;;;6.60;99.90;;;;;;6203928;23;20243;-86
2022/01/01 08:25:28;;;;;;;13.00;6.93;;;6.70;99.90;;;;;;6202871;23;20434;-85
2022/01/01 08:28:16;;;;;;;11.35;6.32;;;6.90;99.90;;;;;;6221498;23;20129;-86
2022/01/01 08:31:04;;;;;;;9.63;6.18;;;7.10;99.90;;;;;;6203321;23;20028;-85
2022/01/01 08:33:51;;;;;;;11.52;6.97;;;7.20;99.90;;;;;;6244404;22;20023;-87
2022/01/01 08:36:39;;;;;;;8.60;6.22;;;7.40;99.90;;;;;;6224185;23;20028;-85
2022/01/01 08:39:29;;;;;;;9.80;6.28;;;7.70;99.90;;;;;;6244153;23;20028;-86
2022/01/01 08:42:16;;;;;;;10.30;6.25;;;7.90;99.90;;;;;;6201907;23;20031;-86
2022/01/01 08:45:04;;;;;;;9.27;6.10;;;8.10;99.90;;;;;;6222451;23;20079;-88
2022/01/01 08:47:54;;;;;;;13.15;6.72;;;8.20;99.90;;;;;;6204066;23;20074;-85
2022/01/01 08:50:41;;;;;;;9.82;5.85;;;8.30;99.90;;;;;;6225143;23;20024;-84
2022/01/01 08:53:29;;;;;;;10.13;6.22;;;8.40;99.90;;;;;;6245564;23;20028;-84
2022/01/01 08:56:17;;;;;;;9.55;5.88;;;8.50;99.90;;;;;;6223239;23;20024;-85
2022/01/01 08:59:05;;;;;;;9.82;6.13;;;8.60;99.90;;;;;;6246343;23;20028;-84
2022/01/01 09:01:52;;;;;;;9.38;6.18;;;8.70;99.90;;;;;;6250690;23;20115;-84
2022/01/01 09:04:39;;;;;;;10.65;6.15;;;8.80;99.90;;;;;;6227300;23;20300;-83
2022/01/01 09:07:30;;;;;;;9.90;6.60;;;8.90;99.90;;;;;;6202561;23;20034;-86
2022/01/01 09:10:19;;;;;;;10.60;6.25;;;8.90;99.90;;;;;;6204423;23;20131;-85
2022/01/01 09:13:11;;;;;;;9.25;5.60;;;8.90;99.90;;;;;;6201292;23;20090;-86
2022/01/01 09:16:01;;;;;;;9.00;6.30;;;9.10;99.90;;;;;;6222652;23;20055;-85
2022/01/01 09:18:48;;;;;;;8.23;5.90;;;9.30;99.90;;;;;;6242649;23;20032;-84
2022/01/01 09:21:35;;;;;;;11.07;6.15;;;9.40;99.90;;;;;;6202695;23;20052;-85
2022/01/01 09:24:23;;;;;;;8.40;5.30;;;9.50;99.90;;;;;;6181462;23;20020;-84
2022/01/01 09:27:10;;;;;;;8.35;5.63;;;9.60;99.90;;;;;;6223356;23;20024;-87
2022/01/01 09:29:58;;;;;;;7.72;5.45;;;9.80;99.90;;;;;;6223290;23;20020;-85
2022/01/01 09:32:45;;;;;;;9.43;5.43;;;10.10;99.90;;;;;;6203156;23;20024;-87
2022/01/01 09:35:32;;;;;;;7.55;5.13;;;10.40;99.90;;;;;;6170854;23;20343;-87
2022/01/01 09:38:20;;;;;;;7.20;4.50;;;11.30;99.90;;;;;;6213145;23;20032;-85
2022/01/01 09:41:09;;;;;;;7.10;4.93;;;12.50;99.90;;;;;;6193874;23;20024;-85
2022/01/01 09:43:58;;;;;;;5.95;4.40;;;14.00;99.90;;;;;;6193072;23;20324;-86
2022/01/01 09:46:48;;;;;;;6.60;4.22;;;15.30;97.50;;;;;;6192443;23;20112;-87
2022/01/01 09:49:35;;;;;;;6.53;4.15;;;16.40;90.20;;;;;;6194009;23;20025;-86
2022/01/01 09:52:23;;;;;;;5.18;3.65;;;17.10;84.40;;;;;;6192901;23;20025;-84
2022/01/01 09:55:13;;;;;;;5.00;3.50;;;17.10;81.50;;;;;;6213125;23;20099;-84
2022/01/01 09:58:00;;;;;;;4.82;3.35;;;17.40;79.00;;;;;;6192156;23;20424;-87
2022/01/01 10:00:49;;;;;;;5.47;3.40;;;17.60;76.90;;;;;;6171053;23;20078;-83
2022/01/01 10:03:48;;;;;;;4.00;2.80;;;17.60;76.70;;;;;;6215198;23;20034;-85
2022/01/01 10:06:40;;;;;;;4.50;3.30;;;17.70;75.60;;;;;;6212500;23;20032;-87
2022/01/01 10:09:35;;;;;;;6.03;3.25;;;18.00;73.60;;;;;;6191346;23;20071;-86
2022/01/01 10:12:38;;;;;;;3.88;3.00;;;18.60;71.40;;;;;;6212207;23;20028;-85
2022/01/01 10:15:26;;;;;;;4.65;2.90;;;19.20;70.20;;;;;;6215782;23;20098;-86
2022/01/01 10:18:14;;;;;;;4.40;2.90;;;20.00;65.90;;;;;;6213234;23;20016;-83
2022/01/01 10:21:08;;;;;;;4.35;3.08;;;20.80;62.20;;;;;;6174581;23;20025;-88
2022/01/01 10:23:57;;;;;;;6.20;3.08;;;21.10;60.70;;;;;;6191260;23;20021;-84
2022/01/01 10:29:58;;;;;;;4.68;2.55;;;20.00;62.60;;;;;;6197497;23;20305;-85
2022/01/01 10:33:03;;;;;;;3.40;2.50;;;19.90;63.50;;;;;;6214029;23;20025;-84
2022/01/01 10:35:57;;;;;;;4.95;3.00;;;20.00;62.70;;;;;;6220477;23;20036;-85
2022/01/01 10:38:45;;;;;;;3.85;2.25;;;20.20;62.30;;;;;;6224513;23;20050;-86
2022/01/01 10:41:45;;;;;;;3.33;2.67;;;20.50;62.50;;;;;;6224778;23;20079;-86
2022/01/01 10:44:36;;;;;;;4.10;2.67;;;21.00;62.00;;;;;;6226222;22;20111;-87
2022/01/01 10:47:35;;;;;;;3.42;2.40;;;21.70;59.00;;;;;;6227136;22;20038;-87
2022/01/01 10:50:34;;;;;;;4.70;2.60;;;21.50;59.10;;;;;;6224304;23;20430;-85
2022/01/01 10:53:28;;;;;;;5.93;2.08;;;21.20;59.60;;;;;;6222525;23;20074;-85
2022/01/01 10:56:19;;;;;;;4.53;3.00;;;21.30;60.60;;;;;;6224079;23;20119;-86
2022/01/01 10:59:09;;;;;;;2.38;2.17;;;21.50;60.00;;;;;;6223361;23;20091;-85
2022/01/01 11:02:01;;;;;;;3.33;1.90;;;22.20;59.30;;;;;;6224965;23;20063;-85
2022/01/01 11:04:49;;;;;;;2.30;1.17;;;23.40;55.70;;;;;;6203932;23;20016;-86
2022/01/01 11:07:40;;;;;;;3.38;1.45;;;23.80;55.20;;;;;;6224360;23;20106;-85
2022/01/01 11:10:47;;;;;;;2.33;1.42;;;23.90;54.80;;;;;;6203277;23;20106;-86
2022/01/01 11:13:54;;;;;;;2.75;2.17;;;24.20;53.80;;;;;;6215032;23;20035;-83
2022/01/01 11:17:07;;;;;;;3.78;2.03;;;24.10;52.90;;;;;;6241002;23;20059;-85
2022/01/01 11:20:13;;;;;;;2.30;1.90;;;23.80;53.70;;;;;;6242587;23;20042;-92
2022/01/01 11:23:08;;;;;;;4.45;2.30;;;23.20;54.40;;;;;;6224630;23;20197;-90
2022/01/01 11:25:56;;;;;;;3.15;2.20;;;22.60;55.80;;;;;;6230622;22;20051;-89
2022/01/01 11:28:43;;;;;;;2.15;1.63;;;22.40;56.90;;;;;;6229856;22;20027;-90
2022/01/01 11:31:35;;;;;;;2.28;1.77;;;22.20;57.40;;;;;;6226814;23;20024;-89
2022/01/01 11:34:37;;;;;;;3.35;1.70;;;22.50;57.40;;;;;;6228913;23;20024;-89
2022/01/01 11:38:04;;;;;;;3.05;1.40;;;22.50;57.60;;;;;;6226572;23;20122;-90
2022/01/01 11:41:09;;;;;;;2.15;0.65;;;22.20;57.40;;;;;;6242586;23;20024;-91
2022/01/01 11:43:57;;;;;;;3.00;1.35;;;21.80;59.70;;;;;;6222922;23;20323;-87
2022/01/01 11:47:14;;;;;;;2.42;1.30;;;22.20;58.50;;;;;;6222910;23;20021;-85
2022/01/01 11:50:05;;;;;;;4.38;1.30;;;22.80;56.70;;;;;;6215815;23;20028;-86
2022/01/01 11:52:55;;;;;;;2.53;1.07;;;23.10;56.60;;;;;;6234276;23;20504;-86
2022/01/01 11:56:10;;;;;;;4.50;1.40;;;23.90;54.60;;;;;;6247959;22;20239;-87
2022/01/01 11:58:57;;;;;;;2.50;1.42;;;24.20;53.10;;;;;;6247257;22;20024;-84
2022/01/01 12:01:50;;;;;;;2.08;1.00;;;23.90;53.70;;;;;;6226474;23;20024;-86
2022/01/01 12:04:43;;;;;;;1.73;1.10;;;24.60;53.10;;;;;;6222799;23;20411;-86
2022/01/01 12:07:30;;;;;;;0.93;0.80;;;24.70;51.80;;;;;;6224176;23;20066;-87
2022/01/01 12:10:23;;;;;;;2.15;1.40;;;24.90;51.60;;;;;;6201843;23;20054;-87
2022/01/01 12:13:12;;;;;;;3.67;1.35;;;24.60;51.20;;;;;;6244243;23;20035;-87
2022/01/01 12:16:24;;;;;;;1.63;1.30;;;24.30;51.00;;;;;;6245482;23;20039;-86
2022/01/01 12:19:21;;;;;;;2.13;1.60;;;23.90;51.30;;;;;;6201964;23;20039;-85
2022/01/01 12:22:28;;;;;;;2.28;1.23;;;23.70;51.60;;;;;;6226792;23;20035;-87
2022/01/01 12:25:36;;;;;;;1.98;1.52;;;23.20;53.20;;;;;;6206220;23;20347;-83
2022/01/01 12:28:37;;;;;;;1.63;1.13;;;22.70;54.30;;;;;;6224711;23;20043;-84
2022/01/01 12:31:32;;;;;;;1.70;1.40;;;22.40;54.80;;;;;;6223157;23;20034;-85
2022/01/01 12:34:26;;;;;;;3.03;1.45;;;21.40;56.90;;;;;;6225893;22;20032;-85
2022/01/01 12:37:20;;;;;;;2.90;1.35;;;21.00;58.80;;;;;;6224227;23;20048;-84
2022/01/01 12:40:10;;;;;;;3.92;1.38;;;20.90;59.60;;;;;;6203677;23;20024;-86
2022/01/01 12:43:08;;;;;;;2.40;1.17;;;21.00;59.90;;;;;;6221330;23;20039;-85
2022/01/01 12:45:59;;;;;;;2.33;1.17;;;20.80;61.60;;;;;;6223544;23;20035;-85
2022/01/01 12:48:47;;;;;;;1.98;1.10;;;21.00;60.70;;;;;;6223771;23;20442;-84
2022/01/01 12:51:39;;;;;;;1.83;1.25;;;21.00;60.40;;;;;;6222611;23;20345;-85
2022/01/01 12:54:32;;;;;;;1.00;0.80;;;21.00;60.50;;;;;;6245157;23;20043;-85
2022/01/01 12:57:23;;;;;;;2.17;1.08;;;21.00;61.10;;;;;;6201958;23;20380;-84
2022/01/01 13:00:23;;;;;;;2.63;0.95;;;21.40;59.60;;;;;;6223878;23;20027;-83
2022/01/01 13:03:16;;;;;;;3.08;1.10;;;21.80;57.80;;;;;;6223350;23;20024;-84
2022/01/01 13:06:03;;;;;;;3.22;1.40;;;21.40;59.10;;;;;;6201693;23;20023;-84
2022/01/01 13:08:51;;;;;;;2.75;1.30;;;21.70;58.70;;;;;;6220387;23;20024;-84
2022/01/01 13:11:40;;;;;;;1.65;1.13;;;21.70;58.40;;;;;;6220721;23;20035;-84
2022/01/01 13:14:30;;;;;;;3.28;1.42;;;21.60;57.80;;;;;;6223353;23;20028;-82
2022/01/01 13:17:23;;;;;;;2.40;1.40;;;21.30;60.00;;;;;;6238241;23;20032;-83
2022/01/01 13:20:17;;;;;;;1.90;1.20;;;21.40;58.60;;;;;;6242558;23;20024;-84
2022/01/01 13:23:05;;;;;;;2.10;1.40;;;21.30;58.70;;;;;;6245138;23;20374;-82
2022/01/01 13:25:53;;;;;;;4.35;1.55;;;22.00;57.60;;;;;;6201650;23;20066;-83
2022/01/01 13:28:43;;;;;;;2.47;1.38;;;22.30;56.50;;;;;;6220781;23;20123;-85
2022/01/01 13:31:32;;;;;;;1.60;1.23;;;21.90;56.70;;;;;;6221752;23;20063;-84
2022/01/01 13:34:22;;;;;;;2.75;1.55;;;21.20;58.10;;;;;;6240972;23;20349;-83
2022/01/01 13:37:20;;;;;;;4.18;1.60;;;20.70;58.90;;;;;;6201561;23;20035;-84
2022/01/01 13:40:10;;;;;;;1.88;1.35;;;20.10;59.70;;;;;;6222328;23;20039;-83
2022/01/01 13:43:11;;;;;;;2.42;1.55;;;19.40;62.10;;;;;;6245097;23;20066;-83
2022/01/01 13:46:32;;;;;;;2.22;1.40;;;18.90;64.00;;;;;;6222111;23;20043;-83
2022/01/01 13:49:19;;;;;;;5.00;1.98;;;18.50;66.20;;;;;;6217649;23;20027;-84
2022/01/01 13:52:23;;;;;;;2.88;2.03;;;18.00;68.10;;;;;;6220624;23;20035;-84
2022/01/01 13:55:26;;;;;;;2.78;2.13;;;17.90;69.40;;;;;;6238264;23;20420;-84
2022/01/01 13:58:13;;;;;;;;;;;17.90;69.90;;;;;;6225289;23;20020;-84
2022/01/01 14:01:09;;;;;;;2.67;2.10;;;17.60;71.70;;;;;;6222096;23;19915;-84
2022/01/01 14:04:06;;;;;;;5.90;2.53;;;17.50;71.40;;;;;;6224048;23;20020;-83
2022/01/01 14:07:08;;;;;;;4.22;2.67;;;17.40;72.10;;;;;;6248624;23;20031;-85
2022/01/01 14:10:03;;;;;;;5.20;2.85;;;17.10;73.50;;;;;;6230029;22;20024;-84
2022/01/01 14:12:59;;;;;;;3.05;2.63;;;17.50;72.90;;;;;;6228220;23;20020;-85
2022/01/01 14:15:58;;;;;;;6.10;2.70;;;18.30;69.90;;;;;;6230313;23;20028;-83
2022/01/01 14:18:49;;;;;;;4.70;2.70;;;18.70;67.10;;;;;;6226731;23;20034;-85
2022/01/01 14:21:39;;;;;;;3.60;2.17;;;18.60;67.30;;;;;;6226311;23;20130;-84
2022/01/01 14:24:33;;;;;;;3.50;2.20;;;18.80;66.20;;;;;;6201937;23;20028;-84
2022/01/01 14:27:30;;;;;;;2.92;1.95;;;19.40;64.90;;;;;;6224855;23;20024;-85
2022/01/01 14:30:21;;;;;;;4.00;2.20;;;19.70;64.30;;;;;;6183701;23;20127;-84
2022/01/01 14:33:22;;;;;;;3.67;2.30;;;20.20;62.10;;;;;;6201655;23;20032;-84
2022/01/01 14:36:15;;;;;;;3.60;2.22;;;20.20;61.00;;;;;;6192466;23;20135;-84
2022/01/01 14:39:14;;;;;;;4.20;2.42;;;19.40;63.30;;;;;;6197062;23;20048;-85
2022/01/01 14:42:06;;;;;;;6.53;2.30;;;19.10;65.00;;;;;;6195102;23;20021;-84
2022/01/01 14:45:16;;;;;;;3.40;2.72;;;18.70;65.80;;;;;;6194900;23;20320;-83
2022/01/01 14:48:17;;;;;;;7.03;2.78;;;18.40;66.90;;;;;;6176472;23;20040;-82
2022/01/01 14:51:29;;;;;;;3.15;2.22;;;18.40;67.30;;;;;;6196632;23;20021;-84
2022/01/01 14:54:37;;;;;;;2.92;2.15;;;18.40;66.60;;;;;;6211433;23;20036;-83
2022/01/01 14:57:56;;;;;;;3.15;1.98;;;18.60;65.50;;;;;;6193012;23;20094;-83
2022/01/01 15:00:58;;;;;;;2.80;2.13;;;18.80;64.60;;;;;;6195097;23;20024;-82
2022/01/01 15:03:47;;;;;;;3.97;2.60;;;18.50;64.90;;;;;;6191755;23;20059;-82